Starke, Florida
Current Conditions -  °F | °C
As of 3:55 AM on Wednesday 26 Nov 2014 (Local Time) from K42J Reporting Station
Overcast Overcast  
Wind Chill: 52°   Ceiling: 600
Heat Index: 52°   Visibility: 3mi
Dew Point: 52°   Wind: 18mph
Humidity: 100%   Direction: 340°NNW
Pressure: 29.94"   Gusts: 26mph
Location:  29.95°N, 82.11°W
Report Text: K42J 260855Z AUTO 34016G23KT 3SM SCT001 BKN006 OVC013 11/11 A2994 RMK AO1 P0001 TSNO
Loading
Personal Weather Stations






























Interactive Weather Map New forecast layout! Learn more

10-Day Weather Forecast

Advertisements
Track Severe Weather on mobile